Time;durP1;ratioP1;P1;durP2;ratioP2;P2;SDS_P1;SDS_P2;PMS_P1;PMS_P2;Temp;Humidity;BMP_temperature;BMP_pressure;BME280_temperature;BME280_humidity;BME280_pressure;Samples;Min_cycle;Max_cycle;Signal;HPM_P1;HPM_P2
2022/04/24 00:00:37;;;;;;;8.07;5.55;;;10.10;99.90;;;;;;4965404;28;20045;-65
2022/04/24 00:03:03;;;;;;;7.47;5.28;;;10.00;99.90;;;;;;4965461;28;20640;-66
2022/04/24 00:05:28;;;;;;;6.22;5.00;;;9.90;99.90;;;;;;4967072;28;20035;-66
2022/04/24 00:07:54;;;;;;;5.95;4.35;;;9.80;99.90;;;;;;4967896;28;20416;-66
2022/04/24 00:10:20;;;;;;;6.32;5.20;;;9.80;99.90;;;;;;4965914;28;20392;-66
2022/04/24 00:12:45;;;;;;;7.20;5.40;;;9.70;99.90;;;;;;4967187;28;20043;-66
2022/04/24 00:15:11;;;;;;;6.18;5.00;;;9.60;99.90;;;;;;4964010;28;20118;-66
2022/04/24 00:17:37;;;;;;;5.30;4.80;;;9.60;99.90;;;;;;4963446;28;20793;-66
2022/04/24 00:20:03;;;;;;;6.38;4.88;;;9.50;99.90;;;;;;4966498;28;20448;-66
2022/04/24 00:22:29;;;;;;;7.65;5.47;;;9.50;99.90;;;;;;4968730;28;20489;-65
2022/04/24 00:24:55;;;;;;;7.00;5.40;;;9.40;99.90;;;;;;4965788;28;20051;-65
2022/04/24 00:27:20;;;;;;;6.55;5.22;;;9.40;99.90;;;;;;4966962;28;20035;-65
2022/04/24 00:29:46;;;;;;;7.05;5.15;;;9.30;99.90;;;;;;4966409;28;20035;-65
2022/04/24 00:32:11;;;;;;;7.10;4.93;;;9.30;99.90;;;;;;4967982;28;20023;-66
2022/04/24 00:34:37;;;;;;;7.35;5.00;;;9.30;99.90;;;;;;4981208;28;20051;-65
2022/04/24 00:37:03;;;;;;;7.28;5.45;;;9.40;99.90;;;;;;4970630;28;20074;-65
2022/04/24 00:39:29;;;;;;;9.52;5.43;;;9.40;99.90;;;;;;4964796;28;20487;-65
2022/04/24 00:41:54;;;;;;;6.20;4.85;;;9.40;99.90;;;;;;4983938;28;20126;-65
2022/04/24 00:44:20;;;;;;;7.57;5.30;;;9.40;99.90;;;;;;4949965;28;20120;-66
2022/04/24 00:46:57;;;;;;;8.18;5.25;;;9.40;99.90;;;;;;4949523;28;20042;-66
2022/04/24 00:49:23;;;;;;;5.18;4.60;;;9.40;99.90;;;;;;4963644;28;20552;-66
2022/04/24 00:51:49;;;;;;;6.07;5.47;;;9.30;99.90;;;;;;4966917;28;20654;-65
2022/04/24 00:54:15;;;;;;;9.90;6.35;;;9.30;99.90;;;;;;4966723;28;20085;-65
2022/04/24 00:56:42;;;;;;;6.85;4.45;;;9.30;99.90;;;;;;4964612;28;20603;-66
2022/04/24 00:59:12;;;;;;;8.52;5.60;;;9.20;99.90;;;;;;4966118;28;20035;-66
2022/04/24 01:01:39;;;;;;;6.22;5.25;;;9.20;99.90;;;;;;4967162;28;20428;-65
2022/04/24 01:04:07;;;;;;;7.90;5.53;;;9.10;99.90;;;;;;4964289;28;20031;-66
2022/04/24 01:06:34;;;;;;;7.45;5.45;;;9.10;99.90;;;;;;4965812;28;20435;-66
2022/04/24 01:09:19;;;;;;;7.60;5.20;;;9.00;99.90;;;;;;4965809;28;20126;-66
2022/04/24 01:11:49;;;;;;;7.00;5.47;;;8.90;99.90;;;;;;4967029;28;20051;-66
2022/04/24 01:14:18;;;;;;;8.25;5.65;;;8.90;99.90;;;;;;4966481;28;20137;-65
2022/04/24 01:16:45;;;;;;;6.00;5.45;;;8.90;99.90;;;;;;4963878;28;20049;-65
2022/04/24 01:19:11;;;;;;;7.22;5.93;;;8.80;99.90;;;;;;4963498;28;20165;-65
2022/04/24 01:21:39;;;;;;;7.25;5.07;;;8.70;99.90;;;;;;4967621;28;20034;-65
2022/04/24 01:24:06;;;;;;;6.22;5.13;;;8.70;99.90;;;;;;4968924;28;20057;-65
2022/04/24 01:26:33;;;;;;;9.65;5.68;;;8.70;99.90;;;;;;4966667;28;20050;-65
2022/04/24 01:28:58;;;;;;;7.75;5.25;;;8.60;99.90;;;;;;4964953;28;20077;-65
2022/04/24 01:31:24;;;;;;;8.10;5.70;;;8.50;99.90;;;;;;4965784;28;20078;-65
2022/04/24 01:33:50;;;;;;;5.55;5.05;;;8.50;99.90;;;;;;4966862;28;20801;-65
2022/04/24 01:36:15;;;;;;;6.82;5.82;;;8.50;99.90;;;;;;4967161;28;20050;-65
2022/04/24 01:38:41;;;;;;;8.68;5.85;;;8.50;99.90;;;;;;4963491;28;20055;-66
2022/04/24 01:41:08;;;;;;;7.90;5.60;;;8.40;99.90;;;;;;4966449;28;20421;-66
2022/04/24 01:43:36;;;;;;;6.13;5.53;;;8.40;99.90;;;;;;4965957;28;20043;-65
2022/04/24 01:46:05;;;;;;;8.40;5.97;;;8.40;99.90;;;;;;4966939;28;20074;-66
2022/04/24 01:48:33;;;;;;;6.95;6.25;;;8.40;99.90;;;;;;4980426;28;20440;-66
2022/04/24 01:51:00;;;;;;;7.00;5.90;;;8.30;99.90;;;;;;4964934;28;20031;-66
2022/04/24 01:53:25;;;;;;;8.18;6.00;;;8.20;99.90;;;;;;4979653;28;20050;-66
2022/04/24 01:55:51;;;;;;;6.85;6.15;;;8.00;99.90;;;;;;4964846;28;20076;-66
2022/04/24 01:58:16;;;;;;;10.18;6.30;;;8.00;99.90;;;;;;4964850;28;20522;-65
2022/04/24 02:00:42;;;;;;;8.65;6.05;;;7.90;99.90;;;;;;4967459;28;20526;-65
2022/04/24 02:03:07;;;;;;;8.07;6.65;;;7.90;99.90;;;;;;4967221;28;20617;-66
2022/04/24 02:05:33;;;;;;;7.85;6.50;;;7.90;99.90;;;;;;4968400;28;20515;-66
2022/04/24 02:07:58;;;;;;;10.80;6.75;;;7.90;99.90;;;;;;4979560;28;20416;-66
2022/04/24 02:10:24;;;;;;;7.10;6.05;;;7.80;99.90;;;;;;4963576;28;20456;-66
2022/04/24 02:12:49;;;;;;;9.02;5.95;;;7.80;99.90;;;;;;4964956;28;20042;-65
2022/04/24 02:15:18;;;;;;;6.72;6.07;;;7.80;99.90;;;;;;4982343;28;20066;-65
2022/04/24 02:17:43;;;;;;;7.75;6.57;;;7.80;99.90;;;;;;4967064;28;20138;-65
2022/04/24 02:20:10;;;;;;;9.20;6.35;;;7.70;99.90;;;;;;4966747;28;20182;-66
2022/04/24 02:22:36;;;;;;;7.47;6.70;;;7.70;99.90;;;;;;4963888;28;20066;-65
2022/04/24 02:25:03;;;;;;;9.10;6.32;;;7.60;99.90;;;;;;4965794;28;20389;-66
2022/04/24 02:27:29;;;;;;;9.05;5.80;;;7.60;99.90;;;;;;4983981;28;20133;-66
2022/04/24 02:29:54;;;;;;;6.78;6.15;;;7.50;99.90;;;;;;4985853;28;20759;-65
2022/04/24 02:32:20;;;;;;;9.05;6.70;;;7.60;99.90;;;;;;4969555;28;20050;-66
2022/04/24 02:34:45;;;;;;;6.97;5.80;;;7.60;99.90;;;;;;4967232;28;20061;-66
2022/04/24 02:37:11;;;;;;;7.18;6.47;;;7.60;99.90;;;;;;4961376;28;20057;-66
2022/04/24 02:39:36;;;;;;;8.43;5.80;;;7.70;99.90;;;;;;4968949;28;20042;-66
2022/04/24 02:42:02;;;;;;;6.63;5.85;;;7.50;99.90;;;;;;4968122;28;20108;-66
2022/04/24 02:44:28;;;;;;;8.45;6.35;;;7.60;99.90;;;;;;4967355;28;20534;-65
2022/04/24 02:46:53;;;;;;;7.25;6.53;;;7.50;99.90;;;;;;4969190;28;20041;-66
2022/04/24 02:49:19;;;;;;;6.80;5.93;;;7.50;99.90;;;;;;4969977;28;20035;-65
2022/04/24 02:51:45;;;;;;;8.00;6.78;;;7.50;99.90;;;;;;4984311;28;20039;-66
2022/04/24 02:54:10;;;;;;;8.18;6.22;;;7.50;99.90;;;;;;4970826;28;20071;-65
2022/04/24 02:56:36;;;;;;;7.97;6.68;;;7.50;99.90;;;;;;4968132;28;20039;-65
2022/04/24 02:59:02;;;;;;;10.25;6.07;;;7.50;99.90;;;;;;4969588;28;20039;-65
2022/04/24 03:01:30;;;;;;;6.15;5.55;;;7.40;99.90;;;;;;4966570;28;20374;-66
2022/04/24 03:03:56;;;;;;;9.38;7.15;;;7.40;99.90;;;;;;4967065;28;20408;-65
2022/04/24 03:06:22;;;;;;;7.47;5.88;;;7.40;99.90;;;;;;4970275;28;20051;-65
2022/04/24 03:08:47;;;;;;;6.00;5.43;;;7.30;99.90;;;;;;4969814;28;20397;-65
2022/04/24 03:11:17;;;;;;;6.82;6.15;;;7.40;99.90;;;;;;4986042;28;20049;-65
2022/04/24 03:13:43;;;;;;;8.95;6.93;;;7.40;99.90;;;;;;4967372;28;20133;-65
2022/04/24 03:16:09;;;;;;;6.95;4.82;;;7.40;99.90;;;;;;4970156;28;20501;-65
2022/04/24 03:18:35;;;;;;;9.98;5.82;;;7.40;99.90;;;;;;4968430;28;20061;-65
2022/04/24 03:21:01;;;;;;;8.40;6.78;;;7.50;99.90;;;;;;4967373;28;20054;-65
2022/04/24 03:23:27;;;;;;;7.15;5.68;;;7.50;99.90;;;;;;4969520;28;20476;-66
2022/04/24 03:25:52;;;;;;;5.95;5.35;;;7.50;99.90;;;;;;4969155;28;20031;-65
2022/04/24 03:28:18;;;;;;;7.00;5.70;;;7.50;99.90;;;;;;4968368;28;20039;-65
2022/04/24 03:30:44;;;;;;;7.32;6.20;;;7.40;99.90;;;;;;4967248;28;20198;-65
2022/04/24 03:33:10;;;;;;;7.45;5.95;;;7.50;99.90;;;;;;4985697;28;20070;-68
2022/04/24 03:35:36;;;;;;;8.48;6.38;;;7.40;99.90;;;;;;4969548;28;20045;-66
2022/04/24 03:38:02;;;;;;;6.93;6.13;;;7.40;99.90;;;;;;4968503;28;20030;-65
2022/04/24 03:40:28;;;;;;;7.50;5.40;;;7.40;99.90;;;;;;4964844;28;20050;-65
2022/04/24 03:42:54;;;;;;;6.97;6.15;;;7.30;99.90;;;;;;4958188;28;20038;-65
2022/04/24 03:45:20;;;;;;;9.50;6.32;;;7.30;99.90;;;;;;4950907;28;20389;-65
2022/04/24 03:47:47;;;;;;;6.13;5.53;;;7.30;99.90;;;;;;4953562;28;20050;-65
2022/04/24 03:50:13;;;;;;;7.57;6.43;;;7.30;99.90;;;;;;4949162;28;20046;-65
2022/04/24 03:52:39;;;;;;;8.55;7.05;;;7.20;99.90;;;;;;4964294;28;20038;-65
2022/04/24 03:55:06;;;;;;;7.57;6.03;;;7.20;99.90;;;;;;4958349;28;20053;-65
2022/04/24 03:57:32;;;;;;;10.95;6.93;;;7.20;99.90;;;;;;4963482;28;20133;-66
2022/04/24 03:59:57;;;;;;;8.60;5.72;;;7.10;99.90;;;;;;4970263;28;20548;-65
2022/04/24 04:02:23;;;;;;;7.95;6.13;;;7.10;99.90;;;;;;4968303;28;20181;-65
2022/04/24 04:04:49;;;;;;;6.60;5.93;;;7.10;99.90;;;;;;4964002;28;20053;-65
2022/04/24 04:07:14;;;;;;;10.50;5.85;;;7.10;99.90;;;;;;4984167;28;20058;-66
2022/04/24 04:09:40;;;;;;;7.63;6.90;;;7.10;99.90;;;;;;4968703;28;20046;-65
2022/04/24 04:12:07;;;;;;;7.63;6.28;;;7.00;99.90;;;;;;4965189;28;20160;-65
2022/04/24 04:14:32;;;;;;;7.57;6.13;;;7.00;99.90;;;;;;4968670;28;20043;-65
2022/04/24 04:16:58;;;;;;;7.53;6.80;;;7.00;99.90;;;;;;4981548;28;20472;-65
2022/04/24 04:19:23;;;;;;;10.68;6.70;;;7.00;99.90;;;;;;4974428;28;20135;-65
2022/04/24 04:21:49;;;;;;;8.50;6.70;;;7.00;99.90;;;;;;4964394;28;20060;-65
2022/04/24 04:24:15;;;;;;;7.05;6.00;;;7.00;99.90;;;;;;4962131;28;20236;-65
2022/04/24 04:26:41;;;;;;;7.72;6.93;;;6.90;99.90;;;;;;4977554;28;20106;-65
2022/04/24 04:29:06;;;;;;;8.07;6.72;;;7.00;99.90;;;;;;4968361;28;20062;-66
2022/04/24 04:31:32;;;;;;;7.60;6.63;;;6.90;99.90;;;;;;4983359;28;20046;-65
2022/04/24 04:33:58;;;;;;;7.47;6.22;;;7.00;99.90;;;;;;4970337;28;20043;-65
2022/04/24 04:36:23;;;;;;;7.75;6.95;;;7.00;99.90;;;;;;4966089;28;20070;-65
2022/04/24 04:38:49;;;;;;;8.30;6.05;;;7.00;99.90;;;;;;4968040;28;20042;-65
2022/04/24 04:41:15;;;;;;;9.07;6.57;;;6.90;99.90;;;;;;4981145;28;20052;-65
2022/04/24 04:43:40;;;;;;;6.72;5.97;;;7.00;99.90;;;;;;4969279;28;20039;-65
2022/04/24 04:46:06;;;;;;;9.10;6.43;;;7.10;99.90;;;;;;4968415;28;20047;-65
2022/04/24 04:48:32;;;;;;;7.18;5.97;;;7.10;99.90;;;;;;4969045;28;20044;-65
2022/04/24 04:50:57;;;;;;;11.13;6.97;;;7.30;99.90;;;;;;4970487;28;20041;-65
2022/04/24 04:53:23;;;;;;;7.20;6.10;;;7.50;99.90;;;;;;4969573;28;20117;-65
2022/04/24 04:55:49;;;;;;;7.60;6.15;;;7.70;99.90;;;;;;4969516;28;20050;-65
2022/04/24 04:58:15;;;;;;;10.73;6.35;;;7.90;99.90;;;;;;4968805;28;20133;-65
2022/04/24 05:00:41;;;;;;;6.72;5.43;;;8.10;99.90;;;;;;4967625;28;20394;-65
2022/04/24 05:03:07;;;;;;;8.18;5.70;;;8.40;99.90;;;;;;4969660;28;20043;-65
2022/04/24 05:05:33;;;;;;;7.55;5.68;;;8.60;99.90;;;;;;4983886;28;20043;-65
2022/04/24 05:07:58;;;;;;;8.68;5.22;;;8.80;99.90;;;;;;4967864;28;20061;-65
2022/04/24 05:10:24;;;;;;;6.72;4.97;;;9.10;99.90;;;;;;4967310;28;20039;-65
2022/04/24 05:12:50;;;;;;;6.32;4.93;;;9.40;99.90;;;;;;4971163;28;20401;-65
2022/04/24 05:15:16;;;;;;;5.63;4.82;;;9.60;99.90;;;;;;4964622;28;20504;-66
2022/04/24 05:17:43;;;;;;;5.70;4.75;;;9.80;99.90;;;;;;4984016;28;20101;-65
2022/04/24 05:20:10;;;;;;;7.93;5.15;;;10.00;99.90;;;;;;4967903;28;20039;-65
2022/04/24 05:22:37;;;;;;;6.85;5.25;;;9.90;99.90;;;;;;4969564;28;20443;-65
2022/04/24 05:25:04;;;;;;;6.18;5.57;;;9.70;99.90;;;;;;4968674;28;20050;-65
2022/04/24 05:27:31;;;;;;;6.82;5.07;;;9.50;99.90;;;;;;4969851;28;20046;-65
2022/04/24 05:29:56;;;;;;;8.93;6.18;;;9.30;99.90;;;;;;4966455;28;20062;-65
2022/04/24 05:32:22;;;;;;;9.55;4.85;;;9.10;99.90;;;;;;4968273;28;20397;-65
2022/04/24 05:34:48;;;;;;;7.80;6.30;;;8.80;99.90;;;;;;4969905;28;20057;-65
2022/04/24 05:37:13;;;;;;;6.40;5.72;;;8.60;99.90;;;;;;4985111;28;20050;-65
2022/04/24 05:39:42;;;;;;;6.75;6.00;;;8.60;99.90;;;;;;4969064;28;20528;-65
2022/04/24 05:42:08;;;;;;;6.75;5.70;;;8.60;99.90;;;;;;4966518;28;20039;-65
2022/04/24 05:44:33;;;;;;;5.80;5.20;;;8.50;99.90;;;;;;4968851;28;20101;-65
2022/04/24 05:46:59;;;;;;;7.25;5.68;;;8.60;99.90;;;;;;4969693;28;20047;-65
2022/04/24 05:49:25;;;;;;;8.40;5.32;;;8.50;99.90;;;;;;4980874;28;20477;-65
2022/04/24 05:51:50;;;;;;;8.82;5.38;;;8.50;99.90;;;;;;4982175;28;20122;-65
2022/04/24 05:54:16;;;;;;;7.28;5.75;;;8.60;99.90;;;;;;4969798;28;20047;-65
2022/04/24 05:56:42;;;;;;;5.68;5.05;;;8.60;99.90;;;;;;4969983;28;20166;-65
2022/04/24 05:59:10;;;;;;;6.53;5.50;;;8.70;99.90;;;;;;4968628;28;20031;-65
2022/04/24 06:01:36;;;;;;;6.22;4.88;;;8.80;99.90;;;;;;4985830;28;20512;-65
2022/04/24 06:04:02;;;;;;;8.23;5.40;;;8.80;99.90;;;;;;4970003;28;20070;-65
2022/04/24 06:06:30;;;;;;;6.60;5.60;;;9.30;99.90;;;;;;4965161;28;20069;-65
2022/04/24 06:08:56;;;;;;;6.25;5.57;;;9.60;99.90;;;;;;4970987;28;20047;-65
2022/04/24 06:11:22;;;;;;;7.82;5.70;;;9.90;99.90;;;;;;4972916;28;20393;-65
2022/04/24 06:13:48;;;;;;;7.65;5.32;;;10.00;99.90;;;;;;4988667;28;20229;-65
2022/04/24 06:16:13;;;;;;;6.88;5.63;;;10.10;99.90;;;;;;4972530;28;20039;-62
2022/04/24 06:18:39;;;;;;;7.20;5.47;;;10.10;99.90;;;;;;4971003;28;20545;-63
2022/04/24 06:21:04;;;;;;;9.52;5.90;;;10.00;99.90;;;;;;4970142;28;20090;-63
2022/04/24 06:23:31;;;;;;;9.43;5.63;;;9.90;99.90;;;;;;4971548;28;20130;-63
2022/04/24 06:25:58;;;;;;;7.30;5.70;;;10.00;99.90;;;;;;4969360;28;20075;-63
2022/04/24 06:28:24;;;;;;;9.82;5.65;;;10.10;99.90;;;;;;4969645;28;20057;-63
2022/04/24 06:30:50;;;;;;;7.53;4.97;;;10.10;99.90;;;;;;4970089;28;20043;-63
2022/04/24 06:33:17;;;;;;;8.10;6.03;;;10.20;99.90;;;;;;4967489;28;20042;-63
2022/04/24 06:35:45;;;;;;;7.60;5.13;;;10.30;99.90;;;;;;4964630;28;20039;-63
2022/04/24 06:38:11;;;;;;;8.10;5.13;;;10.30;99.90;;;;;;4973313;28;20125;-63
2022/04/24 06:40:37;;;;;;;7.65;5.57;;;10.50;99.90;;;;;;4961683;28;20509;-63
2022/04/24 06:43:04;;;;;;;8.63;6.07;;;10.60;99.90;;;;;;4971184;28;20058;-63
2022/04/24 06:45:41;;;;;;;7.93;5.65;;;10.70;99.90;;;;;;4972378;28;20430;-63
2022/04/24 06:48:14;;;;;;;8.98;6.32;;;10.80;99.90;;;;;;4968476;28;20052;-63
2022/04/24 06:50:45;;;;;;;7.72;6.60;;;10.90;99.90;;;;;;4969874;28;20397;-63
2022/04/24 06:53:14;;;;;;;8.38;5.15;;;11.10;99.90;;;;;;4972782;28;20101;-63
2022/04/24 06:55:44;;;;;;;8.13;5.70;;;11.30;99.90;;;;;;4974305;28;20038;-63
2022/04/24 06:58:11;;;;;;;7.40;5.45;;;11.40;99.90;;;;;;4966654;28;20565;-63
2022/04/24 07:00:40;;;;;;;8.15;5.30;;;11.60;99.90;;;;;;4949934;28;20053;-63
2022/04/24 07:03:10;;;;;;;9.48;5.32;;;11.80;99.90;;;;;;4971506;28;20129;-64
2022/04/24 07:05:36;;;;;;;6.35;5.70;;;11.80;99.90;;;;;;4968307;28;20421;-64
2022/04/24 07:08:02;;;;;;;7.13;5.80;;;11.70;99.90;;;;;;4971549;28;20038;-63
2022/04/24 07:10:28;;;;;;;6.38;5.35;;;11.80;99.90;;;;;;4972214;28;20109;-63
2022/04/24 07:12:54;;;;;;;5.93;5.35;;;12.00;99.90;;;;;;4970422;28;20085;-63
2022/04/24 07:15:23;;;;;;;9.55;5.57;;;12.20;99.90;;;;;;4972245;28;20046;-63
2022/04/24 07:17:50;;;;;;;7.88;5.47;;;12.30;99.90;;;;;;4973551;28;20117;-64
2022/04/24 07:20:18;;;;;;;6.55;4.95;;;12.30;99.90;;;;;;4969138;28;20556;-64
2022/04/24 07:22:48;;;;;;;7.55;4.72;;;12.40;99.90;;;;;;4971629;28;20400;-64
2022/04/24 07:25:16;;;;;;;7.38;5.00;;;12.50;99.90;;;;;;4970004;28;20054;-64
2022/04/24 07:27:42;;;;;;;5.47;4.38;;;12.60;99.90;;;;;;4984163;28;20146;-64
2022/04/24 07:30:14;;;;;;;6.50;4.43;;;12.70;99.90;;;;;;4967124;28;20499;-63
2022/04/24 07:32:44;;;;;;;8.77;4.40;;;12.70;99.90;;;;;;4971667;28;20035;-63
2022/04/24 07:35:12;;;;;;;7.32;4.43;;;12.70;99.20;;;;;;4971183;28;20559;-63
2022/04/24 07:37:38;;;;;;;3.92;3.42;;;12.70;99.30;;;;;;4968859;28;20045;-63
2022/04/24 07:40:06;;;;;;;5.38;3.22;;;12.70;99.00;;;;;;4970776;28;20039;-64
2022/04/24 07:42:42;;;;;;;5.05;3.70;;;12.60;98.90;;;;;;4971849;28;20124;-63
2022/04/24 07:45:08;;;;;;;4.35;3.25;;;12.70;98.40;;;;;;4969994;28;20497;-63
2022/04/24 07:47:33;;;;;;;5.90;3.50;;;12.70;98.20;;;;;;4986446;28;20050;-64
2022/04/24 07:49:59;;;;;;;7.93;3.25;;;12.70;98.10;;;;;;4955628;28;20047;-63
2022/04/24 07:52:25;;;;;;;5.93;3.75;;;12.70;97.60;;;;;;4970952;28;20042;-63
2022/04/24 07:54:51;;;;;;;3.78;3.03;;;12.80;99.10;;;;;;4969678;28;20066;-63
2022/04/24 07:57:17;;;;;;;4.45;3.80;;;12.90;98.40;;;;;;4968868;28;20051;-64
2022/04/24 07:59:43;;;;;;;5.38;3.15;;;12.90;99.00;;;;;;4969112;28;20059;-64
2022/04/24 08:02:10;;;;;;;6.15;3.42;;;13.20;98.80;;;;;;4973160;28;20034;-64
2022/04/24 08:04:36;;;;;;;4.32;2.85;;;13.20;98.30;;;;;;4973154;28;20600;-64
2022/04/24 08:07:02;;;;;;;4.05;2.20;;;13.20;97.40;;;;;;4970164;28;20137;-64
2022/04/24 08:09:27;;;;;;;3.30;2.13;;;13.20;96.70;;;;;;4968016;28;20047;-64
2022/04/24 08:11:53;;;;;;;6.30;2.05;;;13.30;95.60;;;;;;4971550;28;20097;-64
2022/04/24 08:14:20;;;;;;;3.00;1.77;;;13.40;95.90;;;;;;4969908;28;20046;-64
2022/04/24 08:16:46;;;;;;;4.53;1.90;;;13.50;95.20;;;;;;4986748;28;20133;-64
2022/04/24 08:19:13;;;;;;;4.43;2.35;;;13.60;94.60;;;;;;4971159;28;20054;-64
2022/04/24 08:21:38;;;;;;;2.20;1.83;;;13.70;93.90;;;;;;4967065;28;20105;-64
2022/04/24 08:24:04;;;;;;;5.07;1.88;;;14.00;95.10;;;;;;4970345;28;20429;-64
2022/04/24 08:26:30;;;;;;;2.50;1.50;;;14.20;93.70;;;;;;4973612;28;20038;-64
2022/04/24 08:28:55;;;;;;;2.47;1.52;;;14.30;93.20;;;;;;4968733;28;21719;-64
2022/04/24 08:31:21;;;;;;;7.35;1.88;;;14.40;93.60;;;;;;4969504;28;20034;-64
2022/04/24 08:33:47;;;;;;;4.63;1.90;;;14.40;92.50;;;;;;4986374;28;20093;-64
2022/04/24 08:36:12;;;;;;;4.10;1.65;;;14.50;91.80;;;;;;4968362;28;20035;-64
2022/04/24 08:38:38;;;;;;;4.65;1.42;;;14.50;90.80;;;;;;4966741;28;20039;-64
2022/04/24 08:41:04;;;;;;;6.28;2.03;;;14.80;91.60;;;;;;4969807;28;20031;-64
2022/04/24 08:43:32;;;;;;;3.13;1.60;;;14.70;90.90;;;;;;4969875;28;20035;-64
2022/04/24 08:45:58;;;;;;;2.22;1.30;;;14.80;90.20;;;;;;4965729;28;20050;-64
2022/04/24 08:48:23;;;;;;;2.92;1.50;;;15.00;89.30;;;;;;4971423;28;20031;-64
2022/04/24 08:50:49;;;;;;;1.85;1.35;;;15.10;89.60;;;;;;4968736;28;20129;-64
2022/04/24 08:53:16;;;;;;;1.88;0.93;;;15.20;89.10;;;;;;4965612;28;20129;-64
2022/04/24 08:55:42;;;;;;;1.77;0.93;;;15.30;89.70;;;;;;4966964;28;20074;-64
2022/04/24 08:58:10;;;;;;;2.13;1.40;;;15.40;86.80;;;;;;4969851;28;20081;-64
2022/04/24 09:00:38;;;;;;;5.05;1.73;;;15.30;86.40;;;;;;4986045;28;20393;-64
2022/04/24 09:03:04;;;;;;;3.38;1.50;;;15.30;86.50;;;;;;4969575;28;20045;-64
2022/04/24 09:05:33;;;;;;;5.60;1.30;;;15.40;85.90;;;;;;4966884;28;20105;-64
2022/04/24 09:08:12;;;;;;;2.60;1.20;;;15.50;86.50;;;;;;4968470;28;20046;-64
2022/04/24 09:10:53;;;;;;;8.32;1.52;;;15.50;84.90;;;;;;4966144;28;20129;-64
2022/04/24 09:13:30;;;;;;;4.18;1.50;;;15.40;82.50;;;;;;4985843;28;20050;-64
2022/04/24 09:15:57;;;;;;;4.47;1.23;;;15.50;83.50;;;;;;4970374;28;20042;-64
2022/04/24 09:18:23;;;;;;;2.85;1.50;;;15.60;82.00;;;;;;4969917;28;20137;-64
2022/04/24 09:20:55;;;;;;;2.53;1.40;;;15.60;83.00;;;;;;4971548;28;20129;-63
2022/04/24 09:23:21;;;;;;;5.80;1.70;;;15.70;82.30;;;;;;4962719;28;20536;-64
2022/04/24 09:25:47;;;;;;;2.70;1.50;;;15.80;80.80;;;;;;4970618;28;20046;-64
2022/04/24 09:28:12;;;;;;;3.78;1.73;;;15.80;82.80;;;;;;4970058;28;20054;-64
2022/04/24 09:30:48;;;;;;;3.63;1.20;;;15.90;84.10;;;;;;4970441;28;20503;-64
2022/04/24 09:33:14;;;;;;;2.38;1.40;;;16.10;84.00;;;;;;4985021;28;20043;-64
2022/04/24 09:35:42;;;;;;;6.40;1.73;;;16.20;82.50;;;;;;4969208;28;20043;-64
2022/04/24 09:38:09;;;;;;;3.92;1.45;;;16.20;83.70;;;;;;4969850;28;20061;-64
2022/04/24 09:40:43;;;;;;;4.60;1.88;;;16.30;82.50;;;;;;4970598;28;20039;-64
2022/04/24 09:43:09;;;;;;;3.58;1.95;;;16.40;81.00;;;;;;4967600;28;20047;-64
2022/04/24 09:45:37;;;;;;;2.67;1.70;;;16.50;83.40;;;;;;4970246;28;20135;-64
2022/04/24 09:48:10;;;;;;;5.25;1.75;;;16.40;79.20;;;;;;4968910;28;20042;-64
2022/04/24 09:50:38;;;;;;;5.18;1.52;;;16.30;80.00;;;;;;4964053;28;20043;-64
2022/04/24 09:53:04;;;;;;;4.72;1.85;;;16.40;78.90;;;;;;4971803;28;20038;-64
2022/04/24 09:55:30;;;;;;;5.72;1.70;;;16.40;79.20;;;;;;4969346;28;20043;-64
2022/04/24 09:57:57;;;;;;;3.65;2.20;;;16.50;80.80;;;;;;4968696;28;20047;-64
2022/04/24 10:00:23;;;;;;;6.57;1.30;;;16.40;78.90;;;;;;4970193;28;20043;-64
2022/04/24 10:02:52;;;;;;;3.72;1.45;;;16.30;80.60;;;;;;4965788;28;20528;-64
2022/04/24 10:05:18;;;;;;;3.25;1.40;;;16.20;77.80;;;;;;4968840;28;20045;-64
2022/04/24 10:07:46;;;;;;;2.35;1.42;;;16.30;76.60;;;;;;4969073;28;20056;-64
2022/04/24 10:10:14;;;;;;;2.45;1.60;;;16.20;76.00;;;;;;4969491;28;20051;-64
2022/04/24 10:12:43;;;;;;;4.60;1.77;;;16.30;72.10;;;;;;4963881;28;20050;-64
2022/04/24 10:15:13;;;;;;;7.10;1.90;;;16.40;75.40;;;;;;4969244;28;20038;-64
2022/04/24 10:17:47;;;;;;;3.03;1.73;;;16.30;75.20;;;;;;4966083;28;20412;-63
2022/04/24 10:20:50;;;;;;;3.38;1.48;;;16.40;76.50;;;;;;4969696;28;20043;-64
2022/04/24 10:23:32;;;;;;;2.80;1.65;;;16.50;74.70;;;;;;4970841;28;20164;-64
2022/04/24 10:25:57;;;;;;;18.70;2.90;;;16.50;74.00;;;;;;4969939;28;20073;-64
2022/04/24 10:28:35;;;;;;;5.07;1.30;;;16.50;75.70;;;;;;4968000;28;20489;-64
2022/04/24 10:31:03;;;;;;;9.30;1.40;;;16.60;76.30;;;;;;4971333;28;20501;-64
2022/04/24 10:33:32;;;;;;;5.13;1.70;;;16.50;72.00;;;;;;4966664;28;20378;-64
2022/04/24 10:36:01;;;;;;;2.25;1.60;;;16.70;77.10;;;;;;4968851;28;20081;-64
2022/04/24 10:38:29;;;;;;;3.40;1.55;;;16.70;77.30;;;;;;4969805;28;20077;-64
2022/04/24 10:41:05;;;;;;;3.67;1.35;;;16.70;76.40;;;;;;4970970;28;20043;-64
2022/04/24 10:43:44;;;;;;;3.33;1.85;;;16.80;75.50;;;;;;4962015;28;20105;-64
2022/04/24 10:46:30;;;;;;;5.35;1.17;;;16.70;75.30;;;;;;4972066;28;20043;-64
2022/04/24 10:49:15;;;;;;;5.53;1.35;;;17.10;75.90;;;;;;4972519;28;20046;-64
2022/04/24 10:51:43;;;;;;;2.55;1.48;;;17.70;70.20;;;;;;4974600;28;20145;-64
2022/04/24 10:54:14;;;;;;;2.35;0.90;;;17.90;71.30;;;;;;4973157;28;20042;-64
2022/04/24 10:56:49;;;;;;;2.15;1.05;;;17.80;66.30;;;;;;4973425;28;20053;-64
2022/04/24 10:59:20;;;;;;;4.53;1.40;;;17.60;65.60;;;;;;4972749;28;20031;-64
2022/04/24 11:01:50;;;;;;;3.70;1.10;;;17.30;67.70;;;;;;4970902;28;20089;-64
2022/04/24 11:04:16;;;;;;;2.13;0.80;;;17.00;64.60;;;;;;4971501;28;20038;-64
2022/04/24 11:06:56;;;;;;;3.47;0.80;;;16.80;66.60;;;;;;4985630;28;20075;-64
2022/04/24 11:09:23;;;;;;;3.45;1.13;;;16.90;66.40;;;;;;4973056;28;20050;-64
2022/04/24 11:11:52;;;;;;;2.88;1.30;;;17.10;71.90;;;;;;4973421;28;20580;-64
2022/04/24 11:14:28;;;;;;;1.35;1.20;;;17.40;72.90;;;;;;4972891;28;20130;-64
2022/04/24 11:16:59;;;;;;;3.35;1.45;;;17.10;69.70;;;;;;4972059;28;20039;-64
2022/04/24 11:19:38;;;;;;;1.50;1.02;;;16.90;70.60;;;;;;4973424;28;20497;-64
2022/04/24 11:22:13;;;;;;;4.15;1.40;;;16.80;69.30;;;;;;4973314;28;20049;-64
2022/04/24 11:24:40;;;;;;;2.20;1.13;;;16.30;69.80;;;;;;4972785;28;20038;-64
2022/04/24 11:27:13;;;;;;;4.30;1.20;;;16.00;69.90;;;;;;4973584;28;20051;-64
2022/04/24 11:29:48;;;;;;;1.40;1.10;;;16.00;73.00;;;;;;4973584;28;20039;-64
2022/04/24 11:32:13;;;;;;;5.07;1.48;;;15.80;74.20;;;;;;4972312;28;20049;-64
2022/04/24 11:34:39;;;;;;;2.72;1.30;;;15.40;70.80;;;;;;4971870;28;20401;-64
2022/04/24 11:37:05;;;;;;;2.63;1.45;;;15.40;71.20;;;;;;4968379;28;20038;-64
2022/04/24 11:39:32;;;;;;;2.17;1.40;;;15.60;73.40;;;;;;4972064;28;20054;-64
2022/04/24 11:41:58;;;;;;;2.58;1.40;;;15.90;73.90;;;;;;4971410;28;21416;-64
2022/04/24 11:50:14;;;;;;;2.30;1.25;;;16.80;69.90;;;;;;4968221;28;20062;-64
2022/04/24 11:52:49;;;;;;;3.78;1.30;;;16.80;69.70;;;;;;4971752;28;20046;-64
2022/04/24 11:55:16;;;;;;;8.93;1.48;;;16.90;70.10;;;;;;4971550;28;20054;-64
2022/04/24 11:57:42;;;;;;;3.53;1.13;;;17.00;69.80;;;;;;4970188;28;20043;-64
2022/04/24 12:00:18;;;;;;;7.50;1.67;;;17.00;68.80;;;;;;4971335;28;20047;-64
2022/04/24 12:02:45;;;;;;;3.90;1.25;;;16.60;67.40;;;;;;4971782;28;20129;-64
2022/04/24 12:05:13;;;;;;;7.78;1.15;;;16.10;67.70;;;;;;4969571;28;20827;-64
2022/04/24 12:07:39;;;;;;;3.78;0.90;;;16.10;68.30;;;;;;4971413;28;20485;-64
2022/04/24 12:10:07;;;;;;;2.35;1.17;;;16.20;69.20;;;;;;4972339;28;20150;-64
2022/04/24 12:12:47;;;;;;;4.05;1.10;;;16.40;69.20;;;;;;4972406;28;20047;-64
2022/04/24 12:15:19;;;;;;;5.28;1.17;;;16.60;68.20;;;;;;4969924;28;20516;-64
2022/04/24 12:17:52;;;;;;;3.40;1.17;;;16.70;69.50;;;;;;4969249;28;20047;-64
2022/04/24 12:20:18;;;;;;;3.03;1.10;;;16.50;68.10;;;;;;4964184;28;20481;-64
2022/04/24 12:22:44;;;;;;;19.48;1.73;;;16.50;70.80;;;;;;4972277;28;20057;-64
2022/04/24 12:25:15;;;;;;;3.25;1.45;;;16.60;70.90;;;;;;4971707;28;20027;-64
2022/04/24 12:27:56;;;;;;;3.85;1.77;;;16.40;71.90;;;;;;4970525;28;20081;-64
2022/04/24 12:30:23;;;;;;;1.85;1.20;;;16.50;73.70;;;;;;4967665;28;20070;-64
2022/04/24 12:32:49;;;;;;;1.70;0.90;;;16.60;74.20;;;;;;4969881;28;20089;-64
2022/04/24 12:35:28;;;;;;;3.50;1.30;;;16.70;72.20;;;;;;4963466;28;20070;-64
2022/04/24 12:37:54;;;;;;;3.53;0.93;;;16.70;73.20;;;;;;4968408;28;20047;-64
2022/04/24 12:40:21;;;;;;;2.95;1.83;;;16.80;71.10;;;;;;4969675;28;20038;-64
2022/04/24 12:42:54;;;;;;;5.60;1.27;;;16.80;72.70;;;;;;4970539;28;20101;-64
2022/04/24 12:45:21;;;;;;;4.22;1.00;;;17.00;71.20;;;;;;4963060;28;20398;-64
2022/04/24 12:47:50;;;;;;;3.55;1.33;;;17.10;70.80;;;;;;4954136;28;20073;-65
2022/04/24 12:50:17;;;;;;;2.38;1.20;;;16.80;69.70;;;;;;4969174;28;20051;-64
2022/04/24 12:52:43;;;;;;;5.10;1.88;;;16.30;71.10;;;;;;4969794;28;20126;-64
2022/04/24 12:55:10;;;;;;;1.60;1.48;;;16.10;72.60;;;;;;4969244;28;20477;-65
2022/04/24 12:57:36;;;;;;;3.15;1.10;;;16.00;74.00;;;;;;4970845;28;20057;-64